Data for 12/11/2013

Time Sea-Level Adjusted Pressure Absolute Pressure Temperature Relative Humidity Dew Point   
(mb) (inHg) (mb) (inHg) (C) (F) (%) (C) (F)
00:05 1023 30.21 852 25.16 -6.9 19.6 69 -11.7 10.9
00:10 1023 30.21 852 25.16 -6.8 19.8 69 -11.6 11.1
00:15 1023 30.21 852 25.16 -6.6 20.1 67 -11.8 10.8
00:20 1023 30.21 852 25.16 -6.4 20.5 66 -11.7 10.9
00:25 1023 30.21 852 25.16 -6.3 20.7 67 -11.4 11.4
00:30 1023 30.21 852 25.16 -6.3 20.6 67 -11.4 11.4
00:35 1023 30.21 852 25.16 -6.4 20.5 68 -11.3 11.6
00:40 1023 30.21 852 25.16 -6.7 19.9 69 -11.4 11.4
00:45 1023 30.21 852 25.16 -7.3 18.8 72 -11.6 11.1
00:50 1023 30.21 852 25.16 -7.6 18.4 72 -11.7 10.9
00:55 1023 30.21 853 25.19 -7.7 18.1 73 -11.7 10.9
01:00 1023 30.21 853 25.19 -7.9 17.8 74 -11.7 11
01:05 1023 30.21 853 25.19 -8 17.5 75 -11.8 10.8
01:10 1024 30.24 853 25.19 -8.4 16.9 76 -11.9 10.6
01:15 1024 30.24 853 25.19 -8.8 16.1 78 -11.9 10.5
01:20 1024 30.24 853 25.19 -8.9 16 79 -12 10.5
01:25 1024 30.24 853 25.19 -8.7 16.4 77 -12.1 10.3
01:30 1024 30.24 853 25.19 -8.5 16.7 75 -12.2 10.1
01:35 1024 30.24 853 25.19 -8.8 16.2 74 -12.6 9.4
01:40 1024 30.24 853 25.19 -9.4 15.1 76 -12.9 8.7
01:45 1024 30.24 853 25.19 -9.7 14.5 78 -12.8 9
01:50 1024 30.24 853 25.19 -9.3 15.2 76 -12.9 8.8
01:55 1024 30.24 853 25.19 -9.3 15.4 73 -13.2 8.2
02:00 1024 30.24 853 25.19 -9.5 14.9 72 -13.7 7.4
02:05 1024 30.24 853 25.19 -10 14.1 73 -13.9 7
02:10 1024 30.24 853 25.19 -10.2 13.6 75 -13.9 7
02:15 1024 30.24 853 25.19 -10.5 13 77 -13.9 7
02:20 1024 30.24 853 25.19 -10.4 13.3 75 -14.1 6.7
02:25 1024 30.24 853 25.19 -10.5 13 77 -13.9 7
02:30 1024 30.24 853 25.19 -10.7 12.7 75 -14.3 6.3
02:35 1024 30.24 853 25.19 -10.5 13.2 74 -14.3 6.3
02:40 1024 30.24 853 25.19 -10.2 13.7 74 -14 6.9
02:45 1024 30.24 853 25.19 -9.8 14.3 74 -13.7 7.4
02:50 1024 30.24 853 25.19 -9.5 14.8 72 -13.6 7.5
02:55 1024 30.24 853 25.19 -9.7 14.5 75 -13.4 7.9
03:00 1024 30.24 853 25.19 -10 13.9 75 -13.7 7.3
03:05 1024 30.24 853 25.19 -9.8 14.3 73 -13.7 7.3
03:10 1024 30.24 853 25.19 -9.5 14.9 71 -13.8 7.1
03:15 1024 30.24 853 25.19 -9.4 15 70 -13.9 7
03:20 1024 30.24 853 25.19 -9.5 14.9 73 -13.5 7.7
03:25 1024 30.24 853 25.19 -9.7 14.5 72 -13.9 7
03:30 1024 30.24 853 25.19 -9.8 14.4 73 -13.8 7.2
03:35 1024 30.24 853 25.19 -10.1 13.7 74 -14 6.9
03:40 1024 30.24 853 25.19 -10.3 13.5 74 -14 6.7
03:45 1024 30.24 853 25.19 -10.5 13.2 75 -14 6.8
03:50 1024 30.24 853 25.19 -10.6 13 74 -14.4 6.1
03:55 1024 30.24 853 25.19 -11.5 11.3 78 -14.6 5.6
04:00 1024 30.24 853 25.19 -11.6 11.1 80 -14.4 6.1
04:05 1024 30.24 853 25.19 -11.3 11.6 79 -14.2 6.4
04:10 1024 30.24 853 25.19 -11.3 11.7 80 -14.1 6.7
04:15 1024 30.24 853 25.19 -11.4 11.5 81 -14 6.7
04:20 1024 30.24 853 25.19 -10.9 12.4 78 -14 6.8
04:25 1024 30.24 853 25.19 -11.1 12 79 -14.1 6.6
04:30 1024 30.24 853 25.19 -11.3 11.7 79 -14.2 6.5
04:35 1024 30.24 853 25.19 -10.4 13.3 75 -13.9 6.9
04:40 1024 30.24 853 25.19 -10.6 13 78 -13.8 7.2
04:45 1024 30.24 853 25.19 -10.9 12.4 77 -14.1 6.6
04:50 1024 30.24 853 25.19 -10.8 12.5 77 -14.2 6.5
04:55 1024 30.24 853 25.19 -10.9 12.3 77 -14.2 6.4
05:00 1024 30.24 853 25.19 -10.8 12.5 76 -14.3 6.3
05:05 1024 30.24 853 25.19 -11.1 12.1 76 -14.6 5.8
05:10 1024 30.24 853 25.19 -11.3 11.7 74 -15 5
05:15 1024 30.24 853 25.19 -11.5 11.2 76 -15 4.9
05:20 1024 30.24 853 25.19 -11.4 11.6 75 -14.9 5.1
05:25 1024 30.24 853 25.19 -11.2 11.8 76 -14.7 5.5
05:30 1024 30.24 853 25.19 -11.5 11.3 77 -14.8 5.3
05:35 1024 30.24 853 25.19 -11.6 11.1 75 -15.1 4.7
05:40 1024 30.24 853 25.19 -12 10.4 78 -15.1 4.7
05:45 1024 30.24 853 25.19 -11.7 11 75 -15.2 4.6
05:50 1024 30.24 853 25.19 -11.4 11.4 76 -14.9 5.1
05:55 1024 30.24 853 25.19 -11.1 11.9 72 -15.2 4.6
06:00 1024 30.24 853 25.19 -11 12.3 72 -15.1 4.7
06:05 1024 30.24 853 25.19 -11.1 12.1 72 -15.1 4.7
06:10 1024 30.24 853 25.19 -11.1 11.9 74 -14.9 5.1
06:15 1024 30.24 853 25.19 -11.4 11.5 77 -14.7 5.6
06:20 1024 30.24 853 25.19 -11.4 11.5 76 -14.8 5.3
06:25 1024 30.24 853 25.19 -11.3 11.7 80 -14.2 6.5
06:30 1024 30.24 853 25.19 -11.3 11.6 78 -14.4 6.1
06:35 1024 30.24 853 25.19 -11.4 11.4 78 -14.5 5.9
06:40 1024 30.24 853 25.19 -11.2 11.8 73 -15.1 4.7
06:45 1024 30.24 853 25.19 -11.7 11 77 -15 5.1
06:50 1024 30.24 853 25.19 -11.8 10.7 76 -15.2 4.6
06:55 1024 30.24 853 25.19 -11.9 10.7 76 -15.3 4.5
07:00 1024 30.24 853 25.19 -12.2 10.1 78 -15.3 4.5
07:05 1024 30.24 853 25.19 -12.3 9.9 78 -15.4 4.4
07:10 1024 30.24 853 25.19 -12 10.3 76 -15.4 4.2
07:15 1024 30.24 853 25.19 -12.2 10.1 81 -14.8 5.3
07:20 1024 30.24 853 25.19 -11.6 11.2 78 -14.7 5.5
07:25 1024 30.24 853 25.19 -11.9 10.6 77 -15.2 4.7
07:30 1024 30.24 853 25.19 -12.4 9.7 78 -15.5 4.2
07:35 1024 30.24 854 25.22 -12.4 9.7 77 -15.7 3.7
07:40 1025 30.27 854 25.22 -12.5 9.6 76 -15.9 3.4
07:45 1025 30.27 854 25.22 -12.2 10.1 79 -15.1 4.9
07:50 1025 30.27 854 25.22 -11.8 10.8 78 -14.9 5.1
07:55 1025 30.27 854 25.22 -11.9 10.5 81 -14.6 5.7
08:00 1025 30.27 854 25.22 -11.9 10.7 79 -14.9 5.3
08:05 1025 30.27 854 25.22 -12.2 10 82 -14.8 5.4
08:10 1025 30.27 854 25.22 -12.1 10.2 80 -14.9 5.1
08:15 1025 30.27 854 25.22 -11.9 10.6 78 -15 5.1
08:20 1025 30.27 854 25.22 -11.4 11.4 77 -14.7 5.6
08:25 1025 30.27 854 25.22 -10.7 12.7 73 -14.6 5.7
08:30 1025 30.27 854 25.22 -11.9 10.6 76 -15.4 4.4
08:35 1025 30.27 854 25.22 -11.7 11 73 -15.5 4
08:40 1025 30.27 854 25.22 -11.2 11.9 72 -15.2 4.6
08:45 1025 30.27 854 25.22 -11.8 10.7 75 -15.4 4.3
08:50 1025 30.27 854 25.22 -12.5 9.6 77 -15.7 3.7
08:55 1025 30.27 854 25.22 -12.7 9.1 77 -16 3.3
09:00 1025 30.27 854 25.22 -13 8.7 79 -15.8 3.5
09:05 1025 30.27 854 25.22 -12.8 9 82 -15.2 4.6
09:10 1025 30.27 854 25.22 -11.2 11.8 76 -14.7 5.5
09:15 1025 30.27 854 25.22 -9.9 14.2 71 -14.2 6.4
09:20 1025 30.27 854 25.22 -10.2 13.7 71 -14.4 6.1
09:25 1025 30.27 854 25.22 -10.2 13.7 71 -14.4 6
09:30 1025 30.27 854 25.22 -10.2 13.7 71 -14.5 6
09:35 1025 30.27 854 25.22 -10.2 13.7 71 -14.5 5.9
09:40 1025 30.27 854 25.22 -10.6 12.9 73 -14.6 5.8
09:45 1025 30.27 854 25.22 -11 12.2 74 -14.8 5.4
09:50 1025 30.27 854 25.22 -11.1 12 75 -14.8 5.4
09:55 1025 30.27 854 25.22 -10.8 12.5 74 -14.7 5.6
10:00 1025 30.27 854 25.22 -10.8 12.6 74 -14.6 5.8
10:05 1025 30.27 854 25.22 -10.8 12.6 74 -14.5 5.8
10:10 1025 30.27 854 25.22 -10.5 13.1 74 -14.4 6.1
10:15 1025 30.27 854 25.22 -9.9 14.2 72 -14.1 6.6
10:20 1025 30.27 854 25.22 -9.4 15 70 -13.9 7
10:25 1025 30.27 854 25.22 -9.2 15.5 69 -13.9 7
10:30 1025 30.27 854 25.22 -8.8 16.1 69 -13.6 7.5
10:35 1025 30.27 854 25.22 -8.8 16.2 67 -13.8 7.2
10:40 1025 30.27 854 25.22 -9 15.8 65 -14.4 6
10:45 1025 30.27 854 25.22 -8.1 17.5 62 -14.1 6.5
10:50 1025 30.27 854 25.22 -7.5 18.4 62 -13.7 7.4
10:55 1024 30.24 854 25.22 -6.9 19.5 60 -13.5 7.6
11:00 1024 30.24 854 25.22 -6.9 19.6 60 -13.4 7.9
11:05 1024 30.24 854 25.22 -6.9 19.6 59 -13.5 7.7
11:10 1024 30.24 854 25.22 -7.8 18 63 -13.7 7.3
11:15 1024 30.24 854 25.22 -7.4 18.6 61 -13.7 7.3
11:20 1024 30.24 854 25.22 -6.5 20.3 58 -13.4 7.9
11:25 1025 30.27 854 25.22 -5.9 21.3 56 -13.3 8
11:30 1025 30.27 854 25.22 -5.7 21.8 57 -13 8.7
11:35 1025 30.27 854 25.22 -5.6 21.9 57 -12.8 9
11:40 1025 30.27 854 25.22 -5.1 22.9 55 -12.8 8.9
11:45 1025 30.27 854 25.22 -4.9 23.1 55 -12.7 9.1
11:50 1025 30.27 854 25.22 -5.4 22.3 56 -12.9 8.8
11:55 1025 30.27 854 25.22 -5.9 21.4 57 -13 8.6
12:00 1025 30.27 854 25.22 -5.7 21.8 57 -12.9 8.8
12:05 1025 30.27 854 25.22 -5.3 22.4 56 -12.7 9.1
12:10 1025 30.27 854 25.22 -4.9 23.2 56 -12.3 9.9
12:15 1025 30.27 854 25.22 -4.4 24.1 55 -12.2 10
12:20 1024 30.24 854 25.22 -3.8 25.2 51 -12.5 9.5
12:25 1024 30.24 854 25.22 -3.4 25.9 54 -11.4 11.4
12:30 1025 30.27 854 25.22 -4.2 24.4 57 -11.6 11.1
12:35 1025 30.27 854 25.22 -4.4 24.1 58 -11.5 11.2
12:40 1025 30.27 854 25.22 -4.7 23.6 59 -11.6 11.1
12:45 1025 30.27 854 25.22 -5 22.9 59 -11.9 10.6
12:50 1025 30.27 854 25.22 -4.4 24 55 -12.2 10
12:55 1025 30.27 854 25.22 -3.3 26 46 -13.3 8.1
13:00 1025 30.27 854 25.22 -3.9 24.9 51 -12.5 9.4
13:05 1025 30.27 854 25.22 -4.2 24.4 50 -13.1 8.5
13:10 1025 30.27 854 25.22 -4.1 24.7 48 -13.5 7.8
13:15 1024 30.24 854 25.22 -3.9 24.9 49 -13.2 8.3
13:20 1024 30.24 854 25.22 -3.3 26 46 -13.4 7.9
13:25 1024 30.24 854 25.22 -2.9 26.8 44 -13.4 7.8
13:30 1024 30.24 854 25.22 -2.9 26.8 45 -13.2 8.2
13:35 1024 30.24 854 25.22 -4.3 24.3 53 -12.4 9.7
13:40 1024 30.24 853 25.19 -3.7 25.4 51 -12.4 9.8
13:45 1024 30.24 853 25.19 -3.2 26.2 46 -13.2 8.2
13:50 1024 30.24 853 25.19 -4.4 24 50 -13.3 8.1
13:55 1024 30.24 853 25.19 -4.2 24.5 48 -13.7 7.4
14:00 1024 30.24 853 25.19 -4.4 24 51 -13.1 8.5
14:05 1024 30.24 853 25.19 -5.2 22.6 52 -13.6 7.6
14:10 1024 30.24 853 25.19 -5.2 22.7 52 -13.5 7.7
14:15 1024 30.24 853 25.19 -4.9 23.1 49 -14 6.8
14:20 1024 30.24 853 25.19 -4.6 23.7 49 -13.8 7.2
14:25 1024 30.24 853 25.19 -4.2 24.5 51 -12.9 8.9
14:30 1024 30.24 853 25.19 -3.7 25.4 49 -12.8 8.9
14:35 1024 30.24 853 25.19 -3.2 26.3 46 -13.2 8.3
14:40 1024 30.24 853 25.19 -3.4 26 49 -12.7 9.2
14:45 1024 30.24 853 25.19 -3.5 25.7 48 -13.1 8.4
14:50 1024 30.24 853 25.19 -2.8 27 47 -12.7 9.1
14:55 1024 30.24 853 25.19 -2.1 28.3 45 -12.6 9.3
15:00 1024 30.24 853 25.19 -1.6 29.1 44 -12.3 9.8
15:05 1024 30.24 853 25.19 -1.7 29 44 -12.3 9.8
15:10 1024 30.24 853 25.19 -2.4 27.6 48 -12 10.5
15:15 1024 30.24 853 25.19 -2.7 27.1 49 -12.1 10.2
15:20 1024 30.24 853 25.19 -2.9 26.8 47 -12.6 9.3
15:25 1024 30.24 853 25.19 -2.5 27.5 46 -12.5 9.5
15:30 1024 30.24 853 25.19 -3.3 26 48 -12.8 8.9
15:35 1024 30.24 853 25.19 -3.8 25.1 50 -12.9 8.8
15:40 1024 30.24 853 25.19 -3.4 25.8 48 -13 8.7
15:45 1024 30.24 853 25.19 -3.3 26.1 51 -12.1 10.3
15:50 1024 30.24 853 25.19 -3 26.6 47 -12.7 9.1
15:55 1024 30.24 853 25.19 -2.7 27.2 47 -12.5 9.5
16:00 1024 30.24 853 25.19 -2.6 27.3 48 -12.3 9.9
16:05 1024 30.24 853 25.19 -2.4 27.7 48 -12 10.4
16:10 1024 30.24 853 25.19 -2.4 27.7 48 -12.1 10.2
16:15 1024 30.24 853 25.19 -2.6 27.3 49 -12 10.4
16:20 1024 30.24 853 25.19 -2.8 27 50 -11.9 10.5
16:25 1024 30.24 853 25.19 -3.2 26.2 51 -12 10.5
16:30 1024 30.24 853 25.19 -3.7 25.3 54 -11.8 10.7
16:35 1024 30.24 853 25.19 -3.9 25 53 -12.2 10.1
16:40 1024 30.24 853 25.19 -4.1 24.7 54 -12.2 10.1
16:45 1024 30.24 853 25.19 -4.2 24.4 53 -12.4 9.7
16:50 1024 30.24 853 25.19 -4.3 24.3 55 -12 10.4
16:55 1024 30.24 853 25.19 -4.2 24.4 55 -11.9 10.6
17:00 1024 30.24 853 25.19 -4.4 24.1 58 -11.5 11.2
17:05 1024 30.24 853 25.19 -4.6 23.7 57 -11.8 10.7
17:10 1024 30.24 853 25.19 -4.8 23.3 56 -12.4 9.7
17:15 1024 30.24 853 25.19 -5 23 60 -11.7 11
17:20 1024 30.24 853 25.19 -5.2 22.6 62 -11.4 11.5
17:25 1024 30.24 853 25.19 -5.7 21.7 65 -11.3 11.7
17:30 1024 30.24 853 25.19 -6.1 21 66 -11.5 11.2
17:35 1024 30.24 853 25.19 -6.3 20.7 66 -11.7 10.9
17:40 1024 30.24 853 25.19 -6.4 20.5 66 -11.8 10.8
17:45 1024 30.24 853 25.19 -6.6 20.2 64 -12.3 9.8
17:50 1024 30.24 853 25.19 -6.8 19.8 64 -12.5 9.6
17:55 1024 30.24 853 25.19 -6.9 19.7 66 -12.2 10.1
18:00 1024 30.24 853 25.19 -6.7 20 68 -11.6 11.2
18:05 1024 30.24 853 25.19 -6.5 20.3 64 -12.2 10
18:10 1024 30.24 853 25.19 -6.5 20.4 67 -11.7 11
18:15 1024 30.24 853 25.19 -6.6 20.2 64 -12.4 9.7
18:20 1024 30.24 853 25.19 -6.8 19.8 65 -12.4 9.8
18:25 1024 30.24 853 25.19 -7 19.4 65 -12.5 9.5
18:30 1024 30.24 853 25.19 -6.9 19.6 66 -12.3 9.8
18:35 1024 30.24 853 25.19 -7.1 19.2 68 -12 10.3
18:40 1024 30.24 854 25.22 -7.1 19.3 68 -12 10.4
18:45 1024 30.24 854 25.22 -7.1 19.2 68 -12 10.4
18:50 1024 30.24 854 25.22 -7.1 19.3 67 -12.1 10.1
18:55 1024 30.24 854 25.22 -7 19.4 67 -12.2 10
19:00 1024 30.24 854 25.22 -6.7 19.9 66 -12.1 10.2
19:05 1024 30.24 854 25.22 -6.8 19.8 65 -12.3 9.9
19:10 1024 30.24 854 25.22 -6.6 20.1 69 -11.4 11.4
19:15 1024 30.24 854 25.22 -7.3 18.9 77 -10.6 12.8
19:20 1025 30.27 854 25.22 -7.7 18.2 82 -10.2 13.6
19:25 1024 30.24 854 25.22 -7.6 18.4 79 -10.6 12.9
19:30 1024 30.24 854 25.22 -7.3 18.9 78 -10.5 13.2
19:35 1024 30.24 854 25.22 -7 19.3 73 -11 12.2
19:40 1024 30.24 854 25.22 -7.1 19.1 70 -11.6 11
19:45 1024 30.24 854 25.22 -6.9 19.5 75 -10.7 12.8
19:50 1024 30.24 854 25.22 -6.8 19.7 80 -9.7 14.5
19:55 1024 30.24 854 25.22 -7.2 19.1 82 -9.7 14.5
20:00 1025 30.27 854 25.22 -7.4 18.7 82 -10 14.1
20:05 1025 30.27 854 25.22 -7.5 18.4 81 -10.3 13.5
20:10 1025 30.27 854 25.22 -7.7 18.1 81 -10.5 13.1
20:15 1025 30.27 854 25.22 -6.9 19.5 76 -10.6 13
20:20 1025 30.27 854 25.22 -6.3 20.6 77 -9.7 14.5
20:25 1025 30.27 854 25.22 -6.6 20.1 77 -10 13.9
20:30 1024 30.24 854 25.22 -7.2 19 81 -9.9 14.1
20:35 1024 30.24 854 25.22 -7.5 18.4 85 -9.6 14.6
20:40 1024 30.24 854 25.22 -7.1 19.3 81 -9.7 14.5
20:45 1024 30.24 854 25.22 -7.4 18.7 83 -9.8 14.4
20:50 1024 30.24 854 25.22 -7.7 18.1 81 -10.4 13.3
20:55 1024 30.24 853 25.19 -8.1 17.5 83 -10.4 13.3
21:00 1024 30.24 853 25.19 -8 17.6 82 -10.5 13
21:05 1024 30.24 854 25.22 -8 17.6 81 -10.7 12.7
21:10 1024 30.24 854 25.22 -7.6 18.3 82 -10.2 13.7
21:15 1024 30.24 854 25.22 -7.7 18.2 81 -10.5 13.2
21:20 1024 30.24 854 25.22 -8.1 17.5 79 -11.1 12.1
21:25 1024 30.24 854 25.22 -8.8 16.1 81 -11.5 11.3
21:30 1024 30.24 853 25.19 -9.1 15.7 83 -11.4 11.4
21:35 1024 30.24 853 25.19 -9.4 15.1 85 -11.4 11.5
21:40 1024 30.24 853 25.19 -9.4 15.1 88 -11 12.1
21:45 1024 30.24 853 25.19 -8.8 16.3 86 -10.8 12.6
21:50 1024 30.24 853 25.19 -8.6 16.6 83 -11 12.3
21:55 1024 30.24 853 25.19 -8.8 16.1 86 -10.8 12.6
22:00 1024 30.24 853 25.19 -8.3 17 81 -11.1 12.1
22:05 1024 30.24 853 25.19 -8.2 17.2 82 -10.9 12.4
22:10 1024 30.24 853 25.19 -8.1 17.4 80 -11 12.2
22:15 1024 30.24 853 25.19 -8 17.6 79 -11 12.1
22:20 1024 30.24 853 25.19 -8.4 17 79 -11.4 11.5
22:25 1024 30.24 853 25.19 -8.5 16.7 76 -12.1 10.3
22:30 1024 30.24 853 25.19 -8.1 17.5 73 -12 10.4
22:35 1024 30.24 853 25.19 -7.9 17.9 72 -12.1 10.2
22:40 1024 30.24 853 25.19 -7.5 18.4 70 -12 10.3
22:45 1024 30.24 853 25.19 -7.4 18.7 69 -12.2 10.1
22:50 1024 30.24 853 25.19 -7 19.3 68 -12 10.4
22:55 1024 30.24 853 25.19 -7 19.4 68 -11.9 10.5
23:00 1024 30.24 854 25.22 -7.3 18.8 70 -11.9 10.6
23:05 1024 30.24 854 25.22 -7.3 18.9 70 -11.9 10.7
23:10 1024 30.24 854 25.22 -7 19.4 70 -11.6 11
23:15 1024 30.24 854 25.22 -6.9 19.6 71 -11.3 11.7
23:20 1025 30.27 854 25.22 -6.9 19.5 71 -11.4 11.5
23:25 1025 30.27 854 25.22 -6.9 19.7 71 -11.2 11.9
23:30 1025 30.27 854 25.22 -6.7 19.9 69 -11.5 11.3
23:35 1025 30.27 854 25.22 -7 19.4 73 -11 12.1
23:40 1025 30.27 854 25.22 -6.7 19.9 77 -10.2 13.7
23:45 1025 30.27 854 25.22 -6.5 20.3 76 -10 13.9
23:50 1025 30.27 854 25.22 -6.4 20.6 76 -9.8 14.3
23:55 1025 30.27 854 25.22 -6.2 20.8 76 -9.7 14.5
24:00 1025 30.27 854 25.22 -6.4 20.5 77 -9.8 14.4